Time;durP1;ratioP1;P1;durP2;ratioP2;P2;SDS_P1;SDS_P2;PMS_P1;PMS_P2;Temp;Humidity;BMP_temperature;BMP_pressure;BME280_temperature;BME280_humidity;BME280_pressure;Samples;Min_cycle;Max_cycle;Signal;HPM_P1;HPM_P2
2022/06/29 00:00:45;;;;;;;3.27;3.07;;;22.40;99.90;;;;;;5026169;28;20459;-80
2022/06/29 00:03:13;;;;;;;3.63;3.43;;;22.40;99.90;;;;;;5025402;28;20457;-80
2022/06/29 00:05:42;;;;;;;3.83;3.23;;;22.30;99.90;;;;;;5022610;28;20454;-80
2022/06/29 00:08:10;;;;;;;2.97;2.70;;;22.30;99.90;;;;;;5025445;28;20450;-80
2022/06/29 00:10:39;;;;;;;5.07;3.10;;;22.40;99.90;;;;;;5024866;28;20454;-79
2022/06/29 00:13:07;;;;;;;4.23;3.70;;;22.30;99.90;;;;;;5024882;28;20485;-79
2022/06/29 00:15:37;;;;;;;3.07;2.87;;;22.30;99.90;;;;;;5026413;28;20528;-80
2022/06/29 00:18:06;;;;;;;3.10;2.90;;;22.30;99.90;;;;;;5023202;28;20511;-79
2022/06/29 00:20:34;;;;;;;3.80;3.57;;;22.30;99.90;;;;;;5025970;28;20489;-80
2022/06/29 00:23:02;;;;;;;3.30;3.00;;;22.30;99.90;;;;;;5025488;28;20824;-79
2022/06/29 00:25:31;;;;;;;3.50;3.20;;;22.20;99.90;;;;;;5019830;28;20468;-79
2022/06/29 00:27:59;;;;;;;3.73;3.43;;;22.30;99.90;;;;;;5021444;28;21314;-79
2022/06/29 00:30:27;;;;;;;3.23;3.00;;;22.20;99.90;;;;;;5022008;28;20511;-79
2022/06/29 00:32:57;;;;;;;3.70;3.50;;;22.20;99.90;;;;;;5022542;28;20491;-80
2022/06/29 00:35:25;;;;;;;4.57;3.73;;;22.10;99.90;;;;;;5025406;28;20525;-80
2022/06/29 00:37:53;;;;;;;3.93;3.63;;;22.10;99.90;;;;;;5024979;28;21045;-79
2022/06/29 00:40:21;;;;;;;3.07;2.87;;;22.10;99.90;;;;;;5025738;28;20491;-80
2022/06/29 00:42:50;;;;;;;7.00;3.50;;;22.10;99.90;;;;;;5025046;28;20477;-79
2022/06/29 00:45:18;;;;;;;3.27;3.07;;;22.20;99.90;;;;;;5023956;28;20852;-79
2022/06/29 00:47:46;;;;;;;3.67;3.40;;;22.20;99.90;;;;;;5024967;28;21346;-80
2022/06/29 00:50:16;;;;;;;3.93;3.63;;;22.20;99.90;;;;;;5026584;28;20501;-79
2022/06/29 00:52:46;;;;;;;3.63;3.43;;;22.20;99.90;;;;;;5024946;28;20661;-79
2022/06/29 00:55:18;;;;;;;2.83;2.63;;;22.10;99.90;;;;;;5024091;28;20476;-79
2022/06/29 00:57:49;;;;;;;3.70;3.40;;;22.10;99.90;;;;;;5022480;28;20463;-79
2022/06/29 01:00:18;;;;;;;4.03;3.80;;;22.10;99.90;;;;;;5024616;28;20472;-79
2022/06/29 01:02:47;;;;;;;3.33;3.03;;;22.10;99.90;;;;;;5052001;28;20477;-78
2022/06/29 01:05:17;;;;;;;3.03;2.83;;;22.10;99.90;;;;;;5026727;28;20468;-78
2022/06/29 01:07:45;;;;;;;3.90;3.60;;;22.10;99.90;;;;;;5021811;28;20991;-79
2022/06/29 01:10:14;;;;;;;3.37;3.13;;;22.10;99.90;;;;;;5023365;28;20476;-80
2022/06/29 01:12:42;;;;;;;4.10;3.70;;;22.10;99.90;;;;;;5028087;28;20556;-79
2022/06/29 01:15:11;;;;;;;4.00;3.70;;;22.00;99.90;;;;;;5023716;28;20452;-80
2022/06/29 01:17:39;;;;;;;2.73;2.53;;;22.00;99.90;;;;;;5024087;28;20465;-79
2022/06/29 01:20:09;;;;;;;2.90;2.70;;;22.10;99.90;;;;;;5022226;28;20480;-80
2022/06/29 01:22:40;;;;;;;3.03;2.83;;;22.00;99.90;;;;;;5020619;28;20445;-79
2022/06/29 01:25:09;;;;;;;2.93;2.77;;;22.00;99.90;;;;;;5020252;28;20449;-79
2022/06/29 01:27:38;;;;;;;3.20;2.90;;;22.00;99.90;;;;;;5017529;28;20484;-79
2022/06/29 01:30:08;;;;;;;3.60;3.30;;;21.90;99.90;;;;;;5020168;28;20595;-79
2022/06/29 01:32:38;;;;;;;3.20;2.90;;;21.90;99.90;;;;;;5023945;28;20476;-79
2022/06/29 01:35:09;;;;;;;3.03;2.73;;;21.90;99.90;;;;;;5018310;28;20449;-79
2022/06/29 01:37:40;;;;;;;3.23;2.93;;;21.90;99.90;;;;;;5014993;28;20453;-79
2022/06/29 01:40:10;;;;;;;3.80;3.20;;;21.90;99.90;;;;;;5022069;28;20481;-79
2022/06/29 01:42:39;;;;;;;2.70;2.50;;;21.90;99.90;;;;;;5014519;28;20499;-79
2022/06/29 01:45:08;;;;;;;3.70;3.40;;;21.90;99.90;;;;;;5020174;28;21023;-79
2022/06/29 01:47:36;;;;;;;3.63;3.33;;;21.90;99.90;;;;;;5022101;28;20445;-80
2022/06/29 01:50:06;;;;;;;2.77;2.57;;;21.90;99.90;;;;;;5023723;28;20491;-80
2022/06/29 01:52:34;;;;;;;3.60;3.33;;;21.80;99.90;;;;;;5024604;28;20487;-80
2022/06/29 01:55:04;;;;;;;2.93;2.73;;;21.80;99.90;;;;;;5023781;28;20460;-80
2022/06/29 01:57:33;;;;;;;4.23;3.43;;;21.90;99.90;;;;;;5024764;28;20894;-80
2022/06/29 02:00:01;;;;;;;3.20;2.97;;;21.80;99.90;;;;;;5020895;28;20489;-78
2022/06/29 02:02:29;;;;;;;4.13;3.83;;;21.80;99.90;;;;;;5025116;28;20460;-79
2022/06/29 02:04:57;;;;;;;3.33;3.03;;;21.80;99.90;;;;;;5022069;28;20964;-80
2022/06/29 02:07:26;;;;;;;3.40;3.20;;;21.80;99.90;;;;;;5021966;28;20557;-79
2022/06/29 02:09:54;;;;;;;3.80;3.50;;;21.80;99.90;;;;;;5023705;28;20481;-80
2022/06/29 02:12:23;;;;;;;3.57;3.27;;;21.80;99.90;;;;;;5021556;28;20958;-79
2022/06/29 02:14:52;;;;;;;3.27;3.07;;;21.80;99.90;;;;;;5024958;28;20452;-80
2022/06/29 02:17:22;;;;;;;2.73;2.53;;;21.80;99.90;;;;;;5023685;28;20980;-79
2022/06/29 02:19:51;;;;;;;3.13;2.93;;;21.70;99.90;;;;;;5024842;28;20497;-79
2022/06/29 02:22:19;;;;;;;3.60;3.30;;;21.80;99.90;;;;;;5022000;28;20961;-78
2022/06/29 02:24:49;;;;;;;4.03;3.77;;;21.70;99.90;;;;;;5023571;28;20452;-78
2022/06/29 02:27:18;;;;;;;2.93;2.73;;;21.70;99.90;;;;;;5022867;28;20440;-78
2022/06/29 02:29:48;;;;;;;2.53;2.40;;;21.70;99.90;;;;;;5024400;28;20561;-77
2022/06/29 02:35:02;;;;;;;3.13;2.93;;;21.50;99.90;;;;;;5026526;28;20457;-79
2022/06/29 02:37:31;;;;;;;3.10;2.80;;;21.50;99.90;;;;;;5025208;28;20456;-79
2022/06/29 02:39:59;;;;;;;3.03;2.73;;;21.60;99.90;;;;;;5027952;28;20468;-78
2022/06/29 02:42:27;;;;;;;3.00;2.80;;;21.60;99.90;;;;;;5024159;28;20462;-79
2022/06/29 02:45:17;;;;;;;3.80;3.53;;;21.60;99.90;;;;;;5026523;28;20453;-78
2022/06/29 02:47:49;;;;;;;3.27;2.90;;;21.50;99.90;;;;;;5026673;28;20488;-78
2022/06/29 02:50:18;;;;;;;3.00;2.63;;;21.50;99.90;;;;;;5026887;28;20479;-78
2022/06/29 02:52:46;;;;;;;3.30;3.10;;;21.50;99.90;;;;;;5019740;28;20546;-79
2022/06/29 02:55:14;;;;;;;7.60;4.57;;;21.50;99.90;;;;;;5022417;28;20475;-79
2022/06/29 02:57:42;;;;;;;3.30;3.00;;;21.50;99.90;;;;;;5022900;28;20486;-80
2022/06/29 03:00:12;;;;;;;3.60;3.20;;;21.50;99.90;;;;;;5025643;28;20493;-78
2022/06/29 03:02:42;;;;;;;2.80;2.60;;;21.60;99.90;;;;;;5025018;28;20461;-79
2022/06/29 03:05:11;;;;;;;3.40;3.10;;;21.60;99.90;;;;;;5026737;28;20452;-79
2022/06/29 03:07:39;;;;;;;3.50;3.30;;;21.50;99.90;;;;;;5023211;28;20578;-79
2022/06/29 03:10:08;;;;;;;3.73;3.43;;;21.50;99.90;;;;;;5025157;28;20482;-79
2022/06/29 03:12:37;;;;;;;3.37;3.07;;;21.50;99.90;;;;;;5029010;28;20460;-80
2022/06/29 03:15:06;;;;;;;2.77;2.50;;;21.50;99.90;;;;;;5030997;28;20484;-80
2022/06/29 03:17:34;;;;;;;3.43;3.23;;;21.50;99.90;;;;;;5027030;28;21264;-80
2022/06/29 03:20:05;;;;;;;2.90;2.70;;;21.50;99.90;;;;;;5027054;28;20488;-80
2022/06/29 03:22:34;;;;;;;3.57;3.27;;;21.50;99.90;;;;;;5021985;28;20449;-79
2022/06/29 03:25:02;;;;;;;3.97;3.67;;;21.50;99.90;;;;;;5023745;28;20464;-80
2022/06/29 03:27:32;;;;;;;3.13;2.93;;;21.40;99.90;;;;;;5024583;28;20546;-79
2022/06/29 03:30:01;;;;;;;3.30;2.77;;;21.50;99.90;;;;;;5025387;28;20591;-79
2022/06/29 03:32:29;;;;;;;4.00;3.70;;;21.40;99.90;;;;;;5024791;28;20464;-80
2022/06/29 03:34:57;;;;;;;4.87;3.53;;;21.40;99.90;;;;;;5027649;28;20483;-79
2022/06/29 03:37:27;;;;;;;3.53;3.23;;;21.40;99.90;;;;;;5026307;28;20453;-80
2022/06/29 03:39:56;;;;;;;3.77;3.27;;;21.40;99.90;;;;;;5023112;28;20491;-81
2022/06/29 03:42:24;;;;;;;5.63;3.40;;;21.40;99.90;;;;;;5022762;28;20455;-80
2022/06/29 03:44:54;;;;;;;4.13;3.50;;;21.40;99.90;;;;;;5024761;28;20467;-81
2022/06/29 03:47:24;;;;;;;3.53;3.23;;;21.30;99.90;;;;;;5026393;28;20463;-80
2022/06/29 03:49:53;;;;;;;2.73;2.53;;;21.30;99.90;;;;;;5026604;28;20486;-79
2022/06/29 03:52:21;;;;;;;3.67;3.40;;;21.40;99.90;;;;;;5024768;28;20524;-80
2022/06/29 03:54:51;;;;;;;4.73;3.03;;;21.30;99.90;;;;;;5022742;28;20537;-80
2022/06/29 03:57:19;;;;;;;3.50;2.40;;;21.30;99.90;;;;;;5022388;28;20476;-80
2022/06/29 03:59:47;;;;;;;6.20;3.30;;;21.30;99.90;;;;;;5026157;28;20866;-80
2022/06/29 04:02:15;;;;;;;3.30;2.87;;;21.30;99.90;;;;;;5021478;28;20521;-80
2022/06/29 04:04:44;;;;;;;2.90;2.70;;;21.30;99.90;;;;;;5025321;28;20457;-80
2022/06/29 04:07:12;;;;;;;3.40;3.20;;;21.30;99.90;;;;;;5020071;28;20496;-82
2022/06/29 04:09:41;;;;;;;3.43;3.23;;;21.30;99.90;;;;;;5021780;28;20472;-80
2022/06/29 04:12:11;;;;;;;3.60;3.30;;;21.30;99.90;;;;;;5023046;28;20464;-80
2022/06/29 04:14:39;;;;;;;5.43;4.20;;;21.30;99.90;;;;;;5025053;28;20477;-80
2022/06/29 04:17:07;;;;;;;4.03;3.70;;;21.30;99.90;;;;;;5024963;28;20464;-80
2022/06/29 04:19:36;;;;;;;3.40;3.17;;;21.30;99.90;;;;;;5024584;28;20859;-82
2022/06/29 04:22:04;;;;;;;3.07;2.87;;;21.20;99.90;;;;;;5023249;28;20436;-80
2022/06/29 04:24:32;;;;;;;3.40;3.13;;;21.20;1.00;;;;;;5026028;28;20448;-80
2022/06/29 04:27:01;;;;;;;3.50;3.20;;;21.20;1.00;;;;;;5019166;28;20490;-79
2022/06/29 04:29:30;;;;;;;3.33;3.13;;;21.20;1.00;;;;;;5022206;28;20548;-79
2022/06/29 04:31:59;;;;;;;7.33;3.47;;;21.20;99.90;;;;;;5020748;28;20482;-80
2022/06/29 04:34:27;;;;;;;3.80;3.50;;;21.20;99.90;;;;;;5023079;28;20933;-78
2022/06/29 04:36:55;;;;;;;3.30;3.10;;;21.30;99.90;;;;;;5023252;28;20543;-77
2022/06/29 04:39:24;;;;;;;3.50;3.30;;;21.30;1.00;;;;;;5023587;28;20500;-77
2022/06/29 04:41:53;;;;;;;3.20;3.00;;;21.20;1.00;;;;;;5021995;28;20448;-78
2022/06/29 04:44:21;;;;;;;4.03;3.73;;;21.10;1.00;;;;;;5025217;28;20464;-77
2022/06/29 04:46:51;;;;;;;3.83;2.87;;;21.00;1.00;;;;;;5024241;28;20457;-77
2022/06/29 04:49:19;;;;;;;3.37;3.07;;;21.00;1.00;;;;;;5024103;28;20469;-77
2022/06/29 04:51:47;;;;;;;3.33;3.03;;;21.00;1.00;;;;;;5019924;28;20453;-77
2022/06/29 04:54:16;;;;;;;3.97;3.60;;;21.00;1.00;;;;;;5025010;28;20473;-78
2022/06/29 04:56:44;;;;;;;3.90;3.60;;;21.10;1.00;;;;;;5021433;28;20453;-76
2022/06/29 04:59:12;;;;;;;4.77;3.13;;;21.20;1.00;;;;;;5026757;28;20469;-76
2022/06/29 05:01:41;;;;;;;3.30;3.10;;;21.10;1.00;;;;;;5020787;28;20857;-77
2022/06/29 05:04:11;;;;;;;4.27;3.33;;;21.20;1.00;;;;;;5025982;28;20515;-81
2022/06/29 05:06:39;;;;;;;4.87;4.47;;;21.30;1.00;;;;;;5030045;28;21124;-81
2022/06/29 05:09:07;;;;;;;4.77;4.37;;;21.30;1.00;;;;;;5030117;28;21024;-81
2022/06/29 05:11:35;;;;;;;4.57;4.17;;;21.40;1.00;;;;;;5028685;28;20474;-81
2022/06/29 05:14:04;;;;;;;4.80;4.40;;;21.50;1.00;;;;;;5026070;28;20457;-80
2022/06/29 05:16:32;;;;;;;3.47;3.20;;;21.50;1.00;;;;;;5023024;28;20456;-80
2022/06/29 05:19:00;;;;;;;4.63;4.30;;;21.50;1.00;;;;;;5023121;28;20546;-80
2022/06/29 05:21:31;;;;;;;4.73;3.50;;;21.50;1.00;;;;;;5028005;28;20459;-80
2022/06/29 05:23:59;;;;;;;4.33;3.87;;;21.60;1.00;;;;;;5027623;28;20455;-80
2022/06/29 05:26:27;;;;;;;5.10;4.60;;;21.60;1.00;;;;;;5028486;28;20448;-81
2022/06/29 05:28:55;;;;;;;4.20;3.90;;;21.60;1.00;;;;;;5027386;28;20476;-80
2022/06/29 05:31:29;;;;;;;3.97;3.63;;;21.70;1.00;;;;;;5028740;28;20460;-79
2022/06/29 05:33:57;;;;;;;4.00;3.70;;;21.70;1.00;;;;;;5027541;28;20463;-81
2022/06/29 05:36:25;;;;;;;5.03;4.63;;;21.70;99.90;;;;;;5022257;28;20485;-79
2022/06/29 05:38:55;;;;;;;4.97;4.57;;;21.80;99.90;;;;;;5030088;28;20480;-80
2022/06/29 05:41:23;;;;;;;4.00;3.70;;;21.80;99.90;;;;;;5020391;28;20447;-81
2022/06/29 05:43:51;;;;;;;5.60;4.07;;;21.80;99.90;;;;;;5016302;28;20457;-80
2022/06/29 05:46:22;;;;;;;5.70;3.90;;;21.80;99.90;;;;;;5023758;28;20497;-80
2022/06/29 05:48:50;;;;;;;3.93;3.67;;;21.80;99.90;;;;;;5025697;28;20481;-81
2022/06/29 05:51:18;;;;;;;4.50;4.20;;;21.90;99.90;;;;;;5025608;28;20479;-81
2022/06/29 05:53:47;;;;;;;5.10;4.60;;;21.90;99.90;;;;;;5024406;28;20551;-78
2022/06/29 05:56:17;;;;;;;4.50;4.10;;;21.90;99.90;;;;;;5024297;28;20481;-80
2022/06/29 05:58:45;;;;;;;3.90;3.60;;;21.90;99.90;;;;;;5025674;28;20483;-81
2022/06/29 06:01:13;;;;;;;4.20;3.80;;;22.00;99.90;;;;;;5025587;28;20456;-82
2022/06/29 06:03:41;;;;;;;4.93;4.37;;;22.00;99.90;;;;;;5027961;28;20467;-81
2022/06/29 06:06:10;;;;;;;5.00;4.37;;;22.10;99.90;;;;;;5025450;28;21125;-80
2022/06/29 06:08:38;;;;;;;4.00;3.70;;;22.10;99.90;;;;;;5031399;28;20572;-80
2022/06/29 06:11:06;;;;;;;5.03;4.43;;;22.20;99.90;;;;;;5029360;28;20476;-81
2022/06/29 06:13:36;;;;;;;7.20;4.50;;;22.10;99.90;;;;;;5028712;28;20612;-81
2022/06/29 06:16:05;;;;;;;4.07;3.77;;;22.20;99.90;;;;;;5026397;28;20489;-81
2022/06/29 06:18:53;;;;;;;4.40;4.00;;;22.20;99.90;;;;;;5026801;28;20591;-81
2022/06/29 06:21:22;;;;;;;4.90;4.40;;;22.30;99.90;;;;;;5029714;28;20455;-81
2022/06/29 06:23:50;;;;;;;5.13;4.63;;;22.30;99.90;;;;;;5028008;28;20459;-81
2022/06/29 06:26:18;;;;;;;4.50;4.07;;;22.30;99.90;;;;;;5026068;28;20463;-81
2022/06/29 06:28:50;;;;;;;4.20;3.70;;;22.40;99.90;;;;;;5027959;28;20535;-80
2022/06/29 06:31:24;;;;;;;4.57;4.20;;;22.40;99.90;;;;;;5028049;28;20532;-81
2022/06/29 06:33:52;;;;;;;4.40;4.03;;;22.40;99.90;;;;;;5028894;28;20464;-81
2022/06/29 06:36:20;;;;;;;4.60;4.23;;;22.50;99.90;;;;;;5025255;28;20986;-81
2022/06/29 06:38:49;;;;;;;5.07;4.57;;;22.50;99.90;;;;;;5026216;28;20470;-79
2022/06/29 06:41:24;;;;;;;4.80;4.40;;;22.60;99.90;;;;;;5026869;28;20464;-81
2022/06/29 06:43:55;;;;;;;3.90;3.60;;;22.60;99.90;;;;;;5031727;28;20959;-80
2022/06/29 06:46:25;;;;;;;4.03;3.70;;;22.60;99.90;;;;;;5030760;28;20453;-81
2022/06/29 06:48:54;;;;;;;4.23;3.97;;;22.70;99.90;;;;;;5024011;28;20478;-81
2022/06/29 06:51:23;;;;;;;4.70;4.30;;;22.80;99.90;;;;;;5028377;28;20447;-81
2022/06/29 06:53:52;;;;;;;3.80;3.60;;;22.80;99.90;;;;;;5030466;28;20529;-81
2022/06/29 06:56:21;;;;;;;4.40;4.10;;;22.90;99.90;;;;;;5024066;28;20473;-81
2022/06/29 06:58:49;;;;;;;8.00;3.90;;;22.90;99.90;;;;;;5025610;28;20565;-80
2022/06/29 07:01:23;;;;;;;3.80;3.50;;;22.90;99.90;;;;;;5021982;28;20451;-80
2022/06/29 07:03:51;;;;;;;4.23;3.93;;;22.90;99.90;;;;;;5026108;28;21346;-80
2022/06/29 07:06:20;;;;;;;4.37;3.97;;;22.90;99.90;;;;;;5024381;28;20467;-81
2022/06/29 07:08:49;;;;;;;3.87;3.63;;;23.10;99.90;;;;;;5027879;28;20485;-80
2022/06/29 07:11:18;;;;;;;3.33;3.10;;;23.10;99.90;;;;;;5028828;28;20462;-81
2022/06/29 07:13:46;;;;;;;4.33;3.93;;;23.10;99.90;;;;;;5031173;28;20829;-81
2022/06/29 07:16:14;;;;;;;3.80;3.43;;;23.20;99.90;;;;;;5028463;28;20478;-80
2022/06/29 07:18:44;;;;;;;3.00;2.80;;;23.20;99.90;;;;;;5031161;28;20497;-80
2022/06/29 07:21:12;;;;;;;4.00;3.80;;;23.20;99.90;;;;;;5024522;28;20451;-80
2022/06/29 07:23:41;;;;;;;3.97;3.77;;;23.30;99.90;;;;;;5027135;28;20459;-80
2022/06/29 07:26:09;;;;;;;3.80;3.50;;;23.30;99.90;;;;;;5028038;28;21004;-81
2022/06/29 07:28:39;;;;;;;3.60;3.30;;;23.40;99.90;;;;;;5027748;28;20454;-80
2022/06/29 07:31:08;;;;;;;3.37;3.07;;;23.40;99.90;;;;;;5021329;28;20545;-80
2022/06/29 07:33:36;;;;;;;3.30;3.10;;;23.40;99.90;;;;;;5028736;28;20470;-80
2022/06/29 07:36:06;;;;;;;3.60;3.00;;;23.50;99.90;;;;;;5025558;28;21229;-81
2022/06/29 07:38:35;;;;;;;3.10;2.90;;;23.50;99.90;;;;;;5028207;28;20467;-81
2022/06/29 07:41:04;;;;;;;4.10;2.40;;;23.60;99.90;;;;;;5029300;28;20478;-80
2022/06/29 07:43:32;;;;;;;4.00;3.70;;;23.60;99.90;;;;;;5027520;28;20491;-81
2022/06/29 07:46:02;;;;;;;3.10;2.80;;;23.70;99.90;;;;;;5028294;28;20451;-80
2022/06/29 07:48:30;;;;;;;3.10;2.80;;;23.80;99.90;;;;;;5029646;28;20491;-80
2022/06/29 07:50:59;;;;;;;3.63;3.33;;;23.80;99.90;;;;;;5029762;28;20452;-81
2022/06/29 07:53:29;;;;;;;2.70;2.50;;;23.90;99.90;;;;;;5030270;28;20454;-81
2022/06/29 07:55:57;;;;;;;3.23;3.03;;;24.00;99.90;;;;;;5028945;28;20479;-80
2022/06/29 07:58:26;;;;;;;3.30;2.50;;;24.00;99.90;;;;;;5025890;28;20464;-81
2022/06/29 08:00:54;;;;;;;3.23;2.90;;;24.00;99.90;;;;;;5031208;28;20449;-81
2022/06/29 08:03:23;;;;;;;3.00;2.80;;;24.10;99.90;;;;;;5032921;28;20455;-81
2022/06/29 08:05:51;;;;;;;2.67;2.57;;;24.10;99.90;;;;;;5025965;28;20461;-81
2022/06/29 08:08:20;;;;;;;3.47;2.87;;;24.10;99.90;;;;;;5033902;28;20452;-80
2022/06/29 08:10:50;;;;;;;2.80;2.60;;;24.10;99.90;;;;;;5033720;28;20512;-80
2022/06/29 08:13:18;;;;;;;3.00;2.80;;;24.10;99.90;;;;;;5026121;28;20457;-80
2022/06/29 08:15:47;;;;;;;2.70;2.50;;;24.20;99.90;;;;;;5025937;28;20463;-79
2022/06/29 08:18:16;;;;;;;3.10;2.90;;;24.20;99.90;;;;;;5028223;28;20474;-81
2022/06/29 08:20:44;;;;;;;2.77;2.57;;;24.30;99.90;;;;;;5033450;28;20460;-80
2022/06/29 08:23:13;;;;;;;2.77;2.57;;;24.30;99.90;;;;;;5033325;28;20987;-81
2022/06/29 08:25:41;;;;;;;3.20;3.00;;;24.20;99.90;;;;;;5027402;28;20470;-80
2022/06/29 08:28:31;;;;;;;2.63;2.53;;;24.30;99.90;;;;;;5027881;28;20455;-81
2022/06/29 08:30:59;;;;;;;2.60;2.50;;;24.30;99.90;;;;;;5028457;28;20466;-80
2022/06/29 08:33:28;;;;;;;3.80;3.10;;;24.30;99.90;;;;;;5031949;28;20534;-81
2022/06/29 08:35:56;;;;;;;2.83;2.63;;;24.50;99.90;;;;;;5028392;28;20540;-81
2022/06/29 08:38:25;;;;;;;2.70;2.60;;;24.50;99.90;;;;;;5032181;28;20548;-81
2022/06/29 08:40:55;;;;;;;2.30;2.20;;;24.40;99.90;;;;;;5033300;28;20456;-80
2022/06/29 08:43:23;;;;;;;2.90;2.70;;;24.50;99.90;;;;;;5031577;28;21038;-81
2022/06/29 08:45:53;;;;;;;2.27;2.17;;;24.50;99.90;;;;;;5032661;28;20467;-80
2022/06/29 08:48:22;;;;;;;3.13;2.80;;;24.50;99.90;;;;;;5031547;28;20457;-80
2022/06/29 08:50:52;;;;;;;2.30;2.20;;;24.60;99.90;;;;;;5033348;28;20452;-81
2022/06/29 08:53:21;;;;;;;2.90;2.70;;;24.60;99.90;;;;;;5028550;28;20822;-80
2022/06/29 08:55:51;;;;;;;2.40;2.30;;;24.60;99.90;;;;;;5028767;28;20448;-80
2022/06/29 08:58:21;;;;;;;2.70;2.53;;;24.60;99.90;;;;;;5022287;28;20460;-81
2022/06/29 09:00:50;;;;;;;3.27;3.07;;;24.60;99.90;;;;;;5023209;28;20464;-81
2022/06/29 09:03:21;;;;;;;2.87;2.43;;;24.70;99.90;;;;;;5018392;28;21580;-81
2022/06/29 09:05:50;;;;;;;3.17;2.97;;;24.70;99.90;;;;;;5027617;28;20436;-81
2022/06/29 09:08:19;;;;;;;3.23;3.03;;;24.80;99.90;;;;;;5029542;28;20547;-80
2022/06/29 09:10:48;;;;;;;3.13;2.60;;;24.90;99.90;;;;;;5028950;28;20463;-79
2022/06/29 09:13:19;;;;;;;2.87;2.67;;;24.90;99.90;;;;;;5026551;28;20463;-81
2022/06/29 09:15:56;;;;;;;2.60;2.50;;;25.20;99.90;;;;;;5029829;28;20445;-79
2022/06/29 09:18:27;;;;;;;3.13;2.83;;;25.00;99.90;;;;;;5030169;28;20484;-81
2022/06/29 09:20:57;;;;;;;3.13;2.93;;;25.00;99.90;;;;;;5020675;28;20464;-81
2022/06/29 09:23:25;;;;;;;3.30;3.00;;;25.00;99.90;;;;;;5028028;28;20805;-80
2022/06/29 09:25:54;;;;;;;2.90;2.70;;;25.10;99.90;;;;;;5024363;28;20460;-80
2022/06/29 09:28:24;;;;;;;2.33;2.23;;;25.20;99.90;;;;;;5029282;28;20468;-81
2022/06/29 09:30:54;;;;;;;3.43;3.20;;;25.20;99.90;;;;;;5029137;28;20468;-81
2022/06/29 09:33:23;;;;;;;2.60;2.40;;;25.20;99.90;;;;;;5037811;28;20460;-81
2022/06/29 09:36:10;;;;;;;2.80;2.60;;;25.20;99.90;;;;;;5027428;28;20463;-81
2022/06/29 09:38:39;;;;;;;2.80;2.70;;;25.30;99.90;;;;;;5021280;28;20470;-80
2022/06/29 09:41:08;;;;;;;2.10;2.00;;;25.30;99.90;;;;;;5029511;28;20476;-80
2022/06/29 09:43:38;;;;;;;2.77;2.63;;;25.30;99.90;;;;;;5028931;28;20503;-81
2022/06/29 09:46:07;;;;;;;2.67;2.50;;;25.40;99.90;;;;;;5028421;28;20505;-81
2022/06/29 09:48:37;;;;;;;2.73;2.53;;;25.40;99.90;;;;;;5020028;28;20496;-82
2022/06/29 09:53:55;;;;;;;2.83;2.63;;;25.30;99.90;;;;;;5025134;28;20466;-80
2022/06/29 09:56:28;;;;;;;2.20;2.10;;;25.40;99.90;;;;;;5027372;28;20479;-81
2022/06/29 09:58:58;;;;;;;2.73;2.60;;;25.30;99.90;;;;;;5022031;28;20483;-80
2022/06/29 10:04:14;;;;;;;2.70;2.50;;;25.40;99.90;;;;;;5025291;28;20460;-81
2022/06/29 10:06:45;;;;;;;2.60;2.40;;;25.40;99.90;;;;;;5029494;28;20826;-80
2022/06/29 10:09:15;;;;;;;4.20;3.37;;;25.40;99.90;;;;;;5026709;28;20492;-80
2022/06/29 10:14:55;;;;;;;2.23;2.13;;;25.40;99.90;;;;;;5018597;28;21128;-81
2022/06/29 10:17:37;;;;;;;2.33;2.23;;;25.40;99.90;;;;;;5020658;28;20491;-80
2022/06/29 10:20:23;;;;;;;2.77;2.50;;;25.40;99.90;;;;;;5026720;28;20491;-82
2022/06/29 10:22:53;;;;;;;2.67;2.47;;;25.40;99.90;;;;;;5022502;28;20953;-84
2022/06/29 10:25:27;;;;;;;2.83;2.63;;;25.40;99.90;;;;;;5026788;28;20522;-85
2022/06/29 10:28:09;;;;;;;2.53;2.33;;;25.30;99.90;;;;;;5029752;28;20452;-85
2022/06/29 10:30:39;;;;;;;3.63;3.00;;;25.40;99.90;;;;;;5033462;28;20541;-84
2022/06/29 10:33:33;;;;;;;2.80;2.70;;;25.30;99.90;;;;;;5034814;28;20464;-84
2022/06/29 10:36:04;;;;;;;3.57;3.37;;;25.40;99.90;;;;;;5025182;28;20448;-85
2022/06/29 10:38:58;;;;;;;3.43;2.90;;;25.40;99.90;;;;;;5020663;28;20551;-85
2022/06/29 10:44:12;;;;;;;2.20;2.10;;;25.40;99.90;;;;;;5017293;28;20525;-82
2022/06/29 10:46:56;;;;;;;2.80;2.57;;;25.40;99.90;;;;;;5029118;28;21259;-81
2022/06/29 10:49:25;;;;;;;2.53;2.33;;;25.50;99.90;;;;;;5026042;28;20511;-81
2022/06/29 10:51:54;;;;;;;3.20;3.00;;;25.50;99.90;;;;;;5030613;28;20468;-82
2022/06/29 10:54:25;;;;;;;2.37;2.27;;;25.50;99.90;;;;;;5032388;28;20456;-81
2022/06/29 10:56:55;;;;;;;2.90;2.70;;;25.60;99.90;;;;;;5032425;28;20882;-81
2022/06/29 10:59:33;;;;;;;3.70;3.30;;;25.60;99.90;;;;;;5032597;28;21188;-82
2022/06/29 11:02:12;;;;;;;2.63;2.43;;;25.60;99.90;;;;;;5020763;28;20462;-81
2022/06/29 11:04:41;;;;;;;2.77;2.57;;;25.60;99.90;;;;;;5032743;28;20954;-82
2022/06/29 11:12:50;;;;;;;3.27;2.77;;;25.60;99.90;;;;;;5032507;28;20459;-81
2022/06/29 11:15:42;;;;;;;2.97;2.77;;;25.60;99.90;;;;;;5032240;28;20453;-81
2022/06/29 11:18:12;;;;;;;2.83;2.63;;;25.60;99.90;;;;;;5027763;28;20559;-82
2022/06/29 11:20:42;;;;;;;2.67;2.40;;;25.60;99.90;;;;;;5026249;28;20496;-81
2022/06/29 11:23:12;;;;;;;2.97;2.70;;;25.60;99.90;;;;;;5026324;28;20463;-81
2022/06/29 11:25:45;;;;;;;3.13;2.83;;;25.60;99.90;;;;;;5027939;28;20567;-82
2022/06/29 11:28:17;;;;;;;2.60;2.40;;;25.60;99.90;;;;;;5026256;28;20450;-82
2022/06/29 11:30:59;;;;;;;2.77;2.57;;;25.60;99.90;;;;;;5032132;28;20483;-82
2022/06/29 11:33:28;;;;;;;2.50;2.30;;;25.70;99.90;;;;;;5031917;28;20539;-82
2022/06/29 11:35:57;;;;;;;3.53;3.30;;;25.70;99.90;;;;;;5032615;28;20469;-82
2022/06/29 11:38:29;;;;;;;4.77;4.37;;;25.70;99.90;;;;;;5027971;28;20481;-82
2022/06/29 11:40:59;;;;;;;3.57;3.30;;;25.80;99.90;;;;;;5029020;28;20460;-82
2022/06/29 11:43:58;;;;;;;6.00;2.50;;;25.80;99.90;;;;;;5022508;28;20457;-79
2022/06/29 11:46:27;;;;;;;2.80;2.60;;;25.80;99.90;;;;;;5030116;28;20440;-82
2022/06/29 11:51:50;;;;;;;3.50;3.30;;;25.90;99.90;;;;;;5029110;28;20459;-82
2022/06/29 11:54:19;;;;;;;2.90;2.70;;;26.00;99.90;;;;;;5029940;28;20456;-82
2022/06/29 11:56:51;;;;;;;2.83;2.50;;;26.00;99.90;;;;;;5030587;28;20461;-83
2022/06/29 11:59:19;;;;;;;2.60;2.40;;;26.00;99.90;;;;;;5031838;28;20491;-82
2022/06/29 12:01:54;;;;;;;2.60;2.50;;;26.00;99.90;;;;;;5031107;28;20867;-80
2022/06/29 12:04:31;;;;;;;2.73;2.53;;;26.10;99.90;;;;;;5023937;28;20452;-83
2022/06/29 12:07:07;;;;;;;2.80;2.47;;;26.00;99.90;;;;;;5053746;28;20937;-82
2022/06/29 12:09:37;;;;;;;2.70;2.57;;;26.00;99.90;;;;;;5031210;28;20498;-81
2022/06/29 12:12:09;;;;;;;3.43;3.00;;;26.00;99.90;;;;;;5026363;28;20863;-81
2022/06/29 12:14:39;;;;;;;3.13;2.43;;;26.00;99.90;;;;;;5030424;28;21153;-81
2022/06/29 12:17:09;;;;;;;2.47;2.37;;;26.00;99.90;;;;;;5027779;28;20456;-82
2022/06/29 12:19:39;;;;;;;2.87;2.67;;;26.00;99.90;;;;;;5027950;28;21108;-81
2022/06/29 12:22:07;;;;;;;3.43;2.20;;;26.00;99.90;;;;;;5025887;28;20480;-82
2022/06/29 12:24:36;;;;;;;3.93;2.43;;;26.00;99.90;;;;;;5027583;28;20518;-82
2022/06/29 12:27:05;;;;;;;3.10;2.90;;;26.00;99.90;;;;;;5030005;28;20820;-81
2022/06/29 12:29:35;;;;;;;2.87;2.77;;;26.00;99.90;;;;;;5027351;28;20559;-82
2022/06/29 12:32:04;;;;;;;3.13;2.50;;;26.00;99.90;;;;;;5029999;28;20987;-83
2022/06/29 12:34:32;;;;;;;3.30;3.10;;;26.00;99.90;;;;;;5028117;28;20536;-81
2022/06/29 12:37:03;;;;;;;2.67;2.57;;;26.00;99.90;;;;;;5029965;28;20474;-81
2022/06/29 12:39:32;;;;;;;2.87;2.67;;;26.00;99.90;;;;;;5027007;28;20476;-81
2022/06/29 12:42:01;;;;;;;3.30;3.10;;;26.00;99.90;;;;;;5028959;28;20850;-81
2022/06/29 12:44:30;;;;;;;3.20;3.00;;;26.00;99.90;;;;;;5028909;28;20800;-84
2022/06/29 12:47:00;;;;;;;3.50;3.07;;;26.00;99.90;;;;;;5028542;28;20440;-84
2022/06/29 12:49:28;;;;;;;4.10;2.80;;;26.00;99.90;;;;;;5032068;28;21093;-84
2022/06/29 12:51:56;;;;;;;2.73;2.63;;;26.00;99.90;;;;;;5029201;28;20978;-84
2022/06/29 12:54:25;;;;;;;3.77;3.47;;;26.10;99.90;;;;;;5023028;28;20454;-84
2022/06/29 12:56:53;;;;;;;3.23;3.03;;;26.10;99.90;;;;;;5026146;28;20453;-85
2022/06/29 12:59:22;;;;;;;3.53;3.20;;;26.20;99.90;;;;;;5027295;28;20480;-84
2022/06/29 13:01:51;;;;;;;3.90;3.60;;;26.10;99.90;;;;;;5031564;28;20441;-84
2022/06/29 13:04:21;;;;;;;2.87;2.67;;;26.10;99.90;;;;;;5021910;28;20496;-84
2022/06/29 13:06:50;;;;;;;2.93;2.73;;;26.20;99.90;;;;;;5029134;28;20633;-83
2022/06/29 13:09:19;;;;;;;3.30;3.10;;;26.10;99.90;;;;;;5027529;28;20846;-84
2022/06/29 13:11:47;;;;;;;3.00;2.90;;;26.20;99.90;;;;;;5056459;28;20460;-84
2022/06/29 13:14:16;;;;;;;3.47;3.27;;;26.20;99.90;;;;;;5030072;28;20456;-85
2022/06/29 13:16:45;;;;;;;2.90;2.70;;;26.20;99.90;;;;;;5031869;28;20459;-84
2022/06/29 13:19:14;;;;;;;3.00;2.80;;;26.30;99.90;;;;;;5021637;28;20531;-84
2022/06/29 13:21:44;;;;;;;3.37;3.07;;;26.10;99.90;;;;;;5026192;28;20457;-85
2022/06/29 13:24:12;;;;;;;3.40;3.20;;;26.20;99.90;;;;;;5031435;28;20543;-86